Time;durP1;ratioP1;P1;durP2;ratioP2;P2;SDS_P1;SDS_P2;PMS_P1;PMS_P2;Temp;Humidity;BMP_temperature;BMP_pressure;BME280_temperature;BME280_humidity;BME280_pressure;Samples;Min_cycle;Max_cycle;Signal;HPM_P1;HPM_P2
2021/03/25 00:00:34;;;;;;;11.20;7.40;;;;;;;;;;5026488;28;20206;-62
2021/03/25 00:03:01;;;;;;;10.97;7.53;;;;;;;;;;5032694;28;20178;-63
2021/03/25 00:05:29;;;;;;;14.03;8.73;;;;;;;;;;5048414;28;20567;-62
2021/03/25 00:07:55;;;;;;;14.47;8.50;;;;;;;;;;5050189;28;20177;-62
2021/03/25 00:10:23;;;;;;;11.97;8.57;;;;;;;;;;5038722;28;20246;-62
2021/03/25 00:12:49;;;;;;;14.87;9.00;;;;;;;;;;5029536;28;20196;-62
2021/03/25 00:15:16;;;;;;;12.57;9.23;;;;;;;;;;5039481;28;20186;-63
2021/03/25 00:17:42;;;;;;;14.90;9.97;;;;;;;;;;5037127;28;20619;-62
2021/03/25 00:20:09;;;;;;;14.80;8.67;;;;;;;;;;5046706;28;20182;-62
2021/03/25 00:22:35;;;;;;;15.30;9.63;;;;;;;;;;5034909;28;20178;-62
2021/03/25 00:25:01;;;;;;;12.00;8.90;;;;;;;;;;5047073;28;20197;-64
2021/03/25 00:27:27;;;;;;;11.67;8.43;;;;;;;;;;5038338;28;20189;-64
2021/03/25 00:29:53;;;;;;;15.43;8.93;;;;;;;;;;5026947;28;20617;-63
2021/03/25 00:32:19;;;;;;;14.53;9.93;;;;;;;;;;5028225;28;20617;-62
2021/03/25 00:34:45;;;;;;;14.67;9.27;;;;;;;;;;5042450;28;20228;-62
2021/03/25 00:37:11;;;;;;;10.80;7.73;;;;;;;;;;5033015;28;20177;-65
2021/03/25 00:39:37;;;;;;;13.70;9.13;;;;;;;;;;5042411;28;20224;-63
2021/03/25 00:42:04;;;;;;;13.23;8.50;;;;;;;;;;5026927;28;20182;-62
2021/03/25 00:44:30;;;;;;;14.57;9.20;;;;;;;;;;5038358;28;20208;-63
2021/03/25 00:46:56;;;;;;;12.87;8.90;;;;;;;;;;5018396;28;20173;-62
2021/03/25 00:49:22;;;;;;;13.87;8.73;;;;;;;;;;5027569;28;20206;-63
2021/03/25 00:51:49;;;;;;;11.47;7.53;;;;;;;;;;5015849;28;20194;-62
2021/03/25 00:54:15;;;;;;;10.20;8.10;;;;;;;;;;5031278;28;20204;-62
2021/03/25 00:56:41;;;;;;;15.10;9.27;;;;;;;;;;5049073;28;20715;-63
2021/03/25 00:59:07;;;;;;;11.47;8.13;;;;;;;;;;5050723;28;20664;-63
2021/03/25 01:01:34;;;;;;;12.30;8.03;;;;;;;;;;5041295;28;20229;-62
2021/03/25 01:04:00;;;;;;;14.13;8.00;;;;;;;;;;5018075;28;20197;-63
2021/03/25 01:06:26;;;;;;;11.67;8.13;;;;;;;;;;5032623;28;20223;-62
2021/03/25 01:08:52;;;;;;;16.37;8.40;;;;;;;;;;5041401;28;20185;-64
2021/03/25 01:11:20;;;;;;;14.80;9.00;;;;;;;;;;5048158;28;20200;-63
2021/03/25 01:13:49;;;;;;;17.40;8.87;;;;;;;;;;5051450;28;20460;-62
2021/03/25 01:16:20;;;;;;;13.00;8.23;;;;;;;;;;5032917;28;20182;-62
2021/03/25 01:18:46;;;;;;;12.30;8.63;;;;;;;;;;5032215;28;20186;-62
2021/03/25 01:21:12;;;;;;;11.30;8.00;;;;;;;;;;5030248;28;20537;-62
2021/03/25 01:23:38;;;;;;;12.67;8.57;;;;;;;;;;5039074;28;20186;-63
2021/03/25 01:26:04;;;;;;;12.60;8.57;;;;;;;;;;5031687;28;20194;-63
2021/03/25 01:28:30;;;;;;;11.87;8.77;;;;;;;;;;5032092;28;20182;-62
2021/03/25 01:30:57;;;;;;;14.23;9.33;;;;;;;;;;5021932;28;20178;-65
2021/03/25 01:33:23;;;;;;;14.33;9.63;;;;;;;;;;5047894;28;20626;-62
2021/03/25 01:35:49;;;;;;;14.37;9.70;;;;;;;;;;5045326;28;20218;-63
2021/03/25 01:38:16;;;;;;;17.47;9.03;;;;;;;;;;5036124;28;20650;-65
2021/03/25 01:40:44;;;;;;;14.80;9.87;;;;;;;;;;5037690;28;20193;-64
2021/03/25 01:43:10;;;;;;;17.00;10.03;;;;;;;;;;5042253;28;20168;-63
2021/03/25 01:45:55;;;;;;;13.40;9.57;;;;;;;;;;5044965;28;20220;-64
2021/03/25 01:48:23;;;;;;;16.50;9.80;;;;;;;;;;5015569;28;20270;-62
2021/03/25 01:50:49;;;;;;;14.63;10.67;;;;;;;;;;5016239;28;20206;-63
2021/03/25 01:53:34;;;;;;;17.27;9.37;;;;;;;;;;5038072;28;20185;-64
2021/03/25 01:56:06;;;;;;;16.80;9.87;;;;;;;;;;5049649;28;20651;-63
2021/03/25 01:58:39;;;;;;;14.47;10.07;;;;;;;;;;5033835;28;20194;-64
2021/03/25 02:01:08;;;;;;;17.67;10.67;;;;;;;;;;5040308;28;20174;-62
2021/03/25 02:03:53;;;;;;;15.53;9.93;;;;;;;;;;5017035;28;20201;-62
2021/03/25 02:06:19;;;;;;;18.73;10.13;;;;;;;;;;5040176;28;20691;-62
2021/03/25 02:09:04;;;;;;;13.77;9.90;;;;;;;;;;5031724;28;20188;-61
2021/03/25 02:11:48;;;;;;;14.60;9.43;;;;;;;;;;5023776;28;20193;-62
2021/03/25 02:14:17;;;;;;;16.40;9.77;;;;;;;;;;5044486;28;20188;-62
2021/03/25 02:16:49;;;;;;;15.97;10.80;;;;;;;;;;5031505;28;20252;-62
2021/03/25 02:19:30;;;;;;;16.77;10.97;;;;;;;;;;5031387;28;20201;-61
2021/03/25 02:21:56;;;;;;;15.73;10.70;;;;;;;;;;5048181;28;20172;-62
2021/03/25 02:24:31;;;;;;;15.60;11.30;;;;;;;;;;5036320;28;20197;-62
2021/03/25 02:27:03;;;;;;;18.40;11.20;;;;;;;;;;5048803;28;20176;-62
2021/03/25 02:29:41;;;;;;;16.47;11.37;;;;;;;;;;5037908;28;20210;-62
2021/03/25 02:32:12;;;;;;;16.90;12.18;;;;;;;;;;5040141;28;20425;-63
2021/03/25 02:34:41;;;;;;;16.10;11.43;;;;;;;;;;5032817;28;20201;-61
2021/03/25 02:37:10;;;;;;;15.53;11.03;;;;;;;;;;5030909;28;20213;-62
2021/03/25 02:39:55;;;;;;;17.10;12.00;;;;;;;;;;5044735;28;20220;-62
2021/03/25 02:42:25;;;;;;;20.10;11.57;;;;;;;;;;5050072;28;20181;-61
2021/03/25 02:45:07;;;;;;;15.83;11.17;;;;;;;;;;5036150;28;20193;-61
2021/03/25 02:47:35;;;;;;;17.70;11.40;;;;;;;;;;5036972;28;20184;-64
2021/03/25 02:50:06;;;;;;;16.53;11.13;;;;;;;;;;5040222;28;20227;-61
2021/03/25 02:52:38;;;;;;;17.83;12.33;;;;;;;;;;5042856;28;20236;-64
2021/03/25 02:55:06;;;;;;;16.00;11.10;;;;;;;;;;5036783;28;20836;-61
2021/03/25 02:57:36;;;;;;;18.43;11.87;;;;;;;;;;5031087;28;20182;-61
2021/03/25 03:00:05;;;;;;;17.07;11.67;;;;;;;;;;5035069;28;20511;-61
2021/03/25 03:02:35;;;;;;;17.00;11.80;;;;;;;;;;5036362;28;20197;-62
2021/03/25 03:05:02;;;;;;;20.57;12.90;;;;;;;;;;5027015;28;20220;-61
2021/03/25 03:07:36;;;;;;;17.03;11.93;;;;;;;;;;5030295;28;20230;-61
2021/03/25 03:10:05;;;;;;;18.13;11.03;;;;;;;;;;5036190;28;20958;-61
2021/03/25 03:12:35;;;;;;;19.50;12.30;;;;;;;;;;5030599;28;20601;-62
2021/03/25 03:15:11;;;;;;;20.20;11.80;;;;;;;;;;5041494;28;20181;-61
2021/03/25 03:17:41;;;;;;;17.93;12.60;;;;;;;;;;5030817;28;20182;-62
2021/03/25 03:20:19;;;;;;;19.17;12.77;;;;;;;;;;5040268;28;20250;-61
2021/03/25 03:22:45;;;;;;;19.60;12.53;;;;;;;;;;5045912;28;20169;-61
2021/03/25 03:25:22;;;;;;;19.00;12.37;;;;;;;;;;5035556;28;20198;-61
2021/03/25 03:27:50;;;;;;;18.50;12.40;;;;;;;;;;5031314;28;20185;-61
2021/03/25 03:30:22;;;;;;;20.83;13.43;;;;;;;;;;5038498;28;20184;-61
2021/03/25 03:32:48;;;;;;;21.07;13.20;;;;;;;;;;5034704;28;20177;-62
2021/03/25 03:35:18;;;;;;;19.60;12.80;;;;;;;;;;5042325;28;20658;-61
2021/03/25 03:37:49;;;;;;;18.57;12.50;;;;;;;;;;5028186;28;20216;-62
2021/03/25 03:40:18;;;;;;;18.87;11.77;;;;;;;;;;5047904;28;20192;-61
2021/03/25 03:42:45;;;;;;;19.00;13.17;;;;;;;;;;5036030;28;20190;-62
2021/03/25 03:45:13;;;;;;;17.57;12.37;;;;;;;;;;5026421;28;20316;-62
2021/03/25 03:47:40;;;;;;;19.83;12.43;;;;;;;;;;5042053;28;20178;-62
2021/03/25 03:50:09;;;;;;;16.47;12.47;;;;;;;;;;5042875;28;20208;-61
2021/03/25 03:52:37;;;;;;;18.27;11.87;;;;;;;;;;5018822;28;20180;-61
2021/03/25 03:55:05;;;;;;;17.07;11.87;;;;;;;;;;5045587;28;20502;-64
2021/03/25 03:58:04;;;;;;;22.40;13.27;;;;;;;;;;5023216;28;20210;-62
2021/03/25 04:00:33;;;;;;;18.47;11.77;;;;;;;;;;4986401;28;20622;-62
2021/03/25 04:03:05;;;;;;;20.73;13.77;;;;;;;;;;5042065;28;20185;-62
2021/03/25 04:05:37;;;;;;;20.83;13.43;;;;;;;;;;5044466;28;20216;-62
2021/03/25 04:08:16;;;;;;;23.63;13.27;;;;;;;;;;5052827;28;20170;-61
2021/03/25 04:10:44;;;;;;;20.00;13.07;;;;;;;;;;5027565;28;20208;-61
2021/03/25 04:13:12;;;;;;;20.60;13.00;;;;;;;;;;5019454;28;20531;-62
2021/03/25 04:15:42;;;;;;;22.00;13.27;;;;;;;;;;5026386;28;20683;-62
2021/03/25 04:18:11;;;;;;;21.07;14.07;;;;;;;;;;5043639;28;20545;-62
2021/03/25 04:20:41;;;;;;;18.07;13.23;;;;;;;;;;5044124;28;20173;-62
2021/03/25 04:23:10;;;;;;;20.47;12.90;;;;;;;;;;5055408;28;20649;-62
2021/03/25 04:25:49;;;;;;;20.90;13.07;;;;;;;;;;5053087;28;20596;-62
2021/03/25 04:28:19;;;;;;;19.57;13.03;;;;;;;;;;5050281;28;20715;-63
2021/03/25 04:30:47;;;;;;;19.47;13.00;;;;;;;;;;5046231;28;20230;-62
2021/03/25 04:33:14;;;;;;;18.70;13.27;;;;;;;;;;5037226;28;20173;-62
2021/03/25 04:35:45;;;;;;;21.73;13.23;;;;;;;;;;5046687;28;20185;-62
2021/03/25 04:38:12;;;;;;;20.70;12.83;;;;;;;;;;5033811;28;20213;-61
2021/03/25 04:40:39;;;;;;;18.57;12.23;;;;;;;;;;5046169;28;20196;-63
2021/03/25 04:43:05;;;;;;;18.93;12.07;;;;;;;;;;5033346;28;20188;-62
2021/03/25 04:45:43;;;;;;;17.93;12.33;;;;;;;;;;5023043;28;20201;-62
2021/03/25 04:48:11;;;;;;;19.73;12.50;;;;;;;;;;5039790;28;20182;-64
2021/03/25 04:50:39;;;;;;;19.77;13.33;;;;;;;;;;5039893;28;20255;-62
2021/03/25 04:53:06;;;;;;;21.03;13.30;;;;;;;;;;5037519;28;20173;-63
2021/03/25 04:55:34;;;;;;;17.20;12.00;;;;;;;;;;5049567;28;20239;-61
2021/03/25 04:58:01;;;;;;;16.77;12.33;;;;;;;;;;5051922;28;20187;-63
2021/03/25 05:00:45;;;;;;;18.07;12.13;;;;;;;;;;5031971;28;20296;-62
2021/03/25 05:03:16;;;;;;;20.07;13.00;;;;;;;;;;5037303;28;20173;-62
2021/03/25 05:05:42;;;;;;;19.97;12.93;;;;;;;;;;5030584;28;20209;-62
2021/03/25 05:08:09;;;;;;;16.97;11.70;;;;;;;;;;5033682;28;20192;-61
2021/03/25 05:10:46;;;;;;;19.67;12.83;;;;;;;;;;5020747;28;20237;-62
2021/03/25 05:13:27;;;;;;;18.53;12.63;;;;;;;;;;5026224;28;20177;-61
2021/03/25 05:16:03;;;;;;;20.33;12.10;;;;;;;;;;5033028;28;20192;-62
2021/03/25 05:18:31;;;;;;;17.87;11.67;;;;;;;;;;5038845;28;20196;-61
2021/03/25 05:21:11;;;;;;;18.63;12.80;;;;;;;;;;5018773;28;20182;-62
2021/03/25 05:23:59;;;;;;;19.07;12.53;;;;;;;;;;5039995;28;20196;-62
2021/03/25 05:26:48;;;;;;;21.23;12.53;;;;;;;;;;5032369;28;20210;-62
2021/03/25 05:29:15;;;;;;;15.60;11.50;;;;;;;;;;5025205;28;20181;-62
2021/03/25 05:31:42;;;;;;;16.87;12.37;;;;;;;;;;5035567;28;20254;-62
2021/03/25 05:34:08;;;;;;;19.47;13.03;;;;;;;;;;5040606;28;20189;-62
2021/03/25 05:36:35;;;;;;;20.43;12.13;;;;;;;;;;5035931;28;20231;-62
2021/03/25 05:39:02;;;;;;;15.83;11.57;;;;;;;;;;5040852;28;20205;-62
2021/03/25 05:41:36;;;;;;;17.60;12.57;;;;;;;;;;5038621;28;20193;-62
2021/03/25 05:44:08;;;;;;;18.50;11.90;;;;;;;;;;5057131;28;20263;-62
2021/03/25 05:46:53;;;;;;;17.47;12.23;;;;;;;;;;5062312;28;20240;-62
2021/03/25 05:49:40;;;;;;;17.27;11.43;;;;;;;;;;5022791;28;20606;-65
2021/03/25 05:52:25;;;;;;;19.73;12.90;;;;;;;;;;5039245;28;20223;-62
2021/03/25 05:55:10;;;;;;;18.70;12.17;;;;;;;;;;5017928;28;20647;-64
2021/03/25 05:57:53;;;;;;;18.70;12.80;;;;;;;;;;5053323;28;20276;-62
2021/03/25 06:00:35;;;;;;;17.47;12.43;;;;;;;;;;5051261;28;20215;-63
2021/03/25 06:03:03;;;;;;;23.00;13.60;;;;;;;;;;5033269;28;20169;-62
2021/03/25 06:05:29;;;;;;;17.83;12.37;;;;;;;;;;5039678;28;20201;-63
2021/03/25 06:08:09;;;;;;;18.53;12.70;;;;;;;;;;5035018;28;20650;-63
2021/03/25 06:10:58;;;;;;;20.43;12.87;;;;;;;;;;5038231;28;20197;-62
2021/03/25 06:13:27;;;;;;;18.13;12.97;;;;;;;;;;5009792;28;20275;-62
2021/03/25 06:15:59;;;;;;;18.87;13.60;;;;;;;;;;5040634;28;20273;-62
2021/03/25 06:18:48;;;;;;;17.93;12.30;;;;;;;;;;5049903;28;20208;-63
2021/03/25 06:21:26;;;;;;;17.63;13.00;;;;;;;;;;5021968;28;20197;-62
2021/03/25 06:23:58;;;;;;;21.90;13.57;;;;;;;;;;5036393;28;20181;-62
2021/03/25 06:26:35;;;;;;;22.40;14.37;;;;;;;;;;5044227;28;20201;-63
2021/03/25 06:29:03;;;;;;;19.90;13.03;;;;;;;;;;5036063;28;20165;-62
2021/03/25 06:31:43;;;;;;;22.53;13.73;;;;;;;;;;5031726;28;20177;-62
2021/03/25 06:34:20;;;;;;;16.13;11.83;;;;;;;;;;5048356;28;20165;-63
2021/03/25 06:36:46;;;;;;;20.87;13.50;;;;;;;;;;5047113;28;20244;-62
2021/03/25 06:39:24;;;;;;;18.50;12.93;;;;;;;;;;5043911;28;20221;-63
2021/03/25 06:42:01;;;;;;;20.60;13.27;;;;;;;;;;5039006;28;20169;-62
2021/03/25 06:44:31;;;;;;;20.47;13.07;;;;;;;;;;5049728;28;20648;-62
2021/03/25 06:47:07;;;;;;;19.93;13.27;;;;;;;;;;5050914;28;20679;-62
2021/03/25 06:49:43;;;;;;;19.70;13.53;;;;;;;;;;5051071;28;20197;-62
2021/03/25 06:52:29;;;;;;;20.77;13.20;;;;;;;;;;5050900;28;20219;-62
2021/03/25 06:54:56;;;;;;;17.47;12.67;;;;;;;;;;5038540;28;20209;-62
2021/03/25 06:57:23;;;;;;;19.77;12.73;;;;;;;;;;5034244;28;20181;-63
2021/03/25 06:59:52;;;;;;;22.33;13.80;;;;;;;;;;5049676;28;20185;-62
2021/03/25 07:02:21;;;;;;;17.73;12.60;;;;;;;;;;5070296;28;20180;-62
2021/03/25 07:04:48;;;;;;;20.57;13.20;;;;;;;;;;5041940;28;20205;-62
2021/03/25 07:07:26;;;;;;;18.37;13.37;;;;;;;;;;5033197;28;20174;-62
2021/03/25 07:09:52;;;;;;;19.77;13.50;;;;;;;;;;5037614;28;20188;-62
2021/03/25 07:12:38;;;;;;;22.73;13.50;;;;;;;;;;5012881;28;20205;-62
2021/03/25 07:15:05;;;;;;;23.70;13.20;;;;;;;;;;5035831;28;22035;-62
2021/03/25 07:17:33;;;;;;;18.00;12.67;;;;;;;;;;5045613;28;20259;-64
2021/03/25 07:20:01;;;;;;;21.43;13.00;;;;;;;;;;5058196;28;20257;-62
2021/03/25 07:22:30;;;;;;;22.47;14.57;;;;;;;;;;5022296;28;20184;-62
2021/03/25 07:25:15;;;;;;;20.23;12.83;;;;;;;;;;5049541;28;20259;-62
2021/03/25 07:27:41;;;;;;;23.40;15.33;;;;;;;;;;5027074;28;20199;-62
2021/03/25 07:30:09;;;;;;;20.03;14.00;;;;;;;;;;5049999;28;20616;-62
2021/03/25 07:32:36;;;;;;;20.63;14.00;;;;;;;;;;5049347;28;20181;-62
2021/03/25 07:35:13;;;;;;;23.03;14.80;;;;;;;;;;5048932;28;20177;-61
2021/03/25 07:37:41;;;;;;;25.63;14.63;;;;;;;;;;5049707;28;20308;-62
2021/03/25 07:40:29;;;;;;;22.67;14.77;;;;;;;;;;5031962;28;20173;-62
2021/03/25 07:42:56;;;;;;;21.23;14.17;;;;;;;;;;5048285;28;20556;-63
2021/03/25 07:45:30;;;;;;;23.10;16.17;;;;;;;;;;5025857;28;20201;-61
2021/03/25 07:48:13;;;;;;;25.90;16.47;;;;;;;;;;5041679;28;20187;-64
2021/03/25 07:50:40;;;;;;;25.17;16.60;;;;;;;;;;5041371;28;20205;-61
2021/03/25 07:53:18;;;;;;;20.50;15.00;;;;;;;;;;5051850;28;20180;-61
2021/03/25 07:55:44;;;;;;;23.93;15.93;;;;;;;;;;5067330;28;20646;-62
2021/03/25 07:58:16;;;;;;;22.13;15.73;;;;;;;;;;5061659;28;20181;-62
2021/03/25 08:00:42;;;;;;;28.42;19.75;;;;;;;;;;5027656;28;20406;-61
2021/03/25 08:03:12;;;;;;;26.20;18.57;;;;;;;;;;5035402;28;20181;-61
2021/03/25 08:05:38;;;;;;;25.80;17.73;;;;;;;;;;5033089;28;20665;-61
2021/03/25 08:08:17;;;;;;;28.70;18.80;;;;;;;;;;5018840;28;20663;-61
2021/03/25 08:10:44;;;;;;;27.27;18.47;;;;;;;;;;5049140;28;20206;-61
2021/03/25 08:13:16;;;;;;;33.50;19.77;;;;;;;;;;5030991;28;20185;-62
2021/03/25 08:15:44;;;;;;;28.23;18.37;;;;;;;;;;5048520;28;20187;-61
2021/03/25 08:18:25;;;;;;;27.07;17.87;;;;;;;;;;5052078;28;20188;-61
2021/03/25 08:21:09;;;;;;;26.40;17.60;;;;;;;;;;5043526;28;20184;-62
2021/03/25 08:23:44;;;;;;;27.97;17.50;;;;;;;;;;5043473;28;20174;-61
2021/03/25 08:26:25;;;;;;;29.73;19.63;;;;;;;;;;5033060;28;20730;-62
2021/03/25 08:28:57;;;;;;;28.87;19.47;;;;;;;;;;5023401;28;20182;-61
2021/03/25 08:31:39;;;;;;;29.77;19.67;;;;;;;;;;5033667;28;20170;-61
2021/03/25 08:34:05;;;;;;;31.53;20.90;;;;;;;;;;5024460;28;20226;-61
2021/03/25 08:36:37;;;;;;;34.67;21.57;;;;;;;;;;5032737;28;20189;-61
2021/03/25 08:39:09;;;;;;;36.27;23.00;;;;;;;;;;5045040;28;20699;-61
2021/03/25 08:41:41;;;;;;;30.63;20.70;;;;;;;;;;5051768;28;20628;-62
2021/03/25 08:44:24;;;;;;;31.57;22.23;;;;;;;;;;5051602;28;20275;-61
2021/03/25 08:46:56;;;;;;;33.53;21.60;;;;;;;;;;5020178;28;20224;-61
2021/03/25 08:49:34;;;;;;;35.07;22.80;;;;;;;;;;5046557;28;20205;-62
2021/03/25 08:52:02;;;;;;;38.63;24.00;;;;;;;;;;5052280;28;20340;-62
2021/03/25 08:54:32;;;;;;;37.03;23.60;;;;;;;;;;5049659;28;20280;-61
2021/03/25 08:57:03;;;;;;;42.13;25.87;;;;;;;;;;5051517;28;20173;-61
2021/03/25 08:59:31;;;;;;;37.70;24.73;;;;;;;;;;5051631;28;20181;-61
2021/03/25 09:02:13;;;;;;;37.80;24.00;;;;;;;;;;5051735;28;20174;-62
2021/03/25 09:04:51;;;;;;;33.93;23.17;;;;;;;;;;5050894;28;20232;-61
2021/03/25 09:07:18;;;;;;;38.33;25.13;;;;;;;;;;5052608;28;20157;-61
2021/03/25 09:09:46;;;;;;;40.60;25.77;;;;;;;;;;5045466;28;20186;-62
2021/03/25 09:12:17;;;;;;;33.83;24.50;;;;;;;;;;5047670;28;20176;-61
2021/03/25 09:14:43;;;;;;;38.00;26.07;;;;;;;;;;5054018;28;20188;-62
2021/03/25 09:17:12;;;;;;;39.07;25.87;;;;;;;;;;5036114;28;20204;-61
2021/03/25 09:19:40;;;;;;;44.13;28.67;;;;;;;;;;5053905;28;20188;-62
2021/03/25 09:22:06;;;;;;;38.43;25.70;;;;;;;;;;5052542;28;20226;-61
2021/03/25 09:24:33;;;;;;;35.43;23.93;;;;;;;;;;5050673;28;20181;-62
2021/03/25 09:27:00;;;;;;;35.87;25.10;;;;;;;;;;5031813;28;20518;-61
2021/03/25 09:29:28;;;;;;;41.27;26.50;;;;;;;;;;5050078;28;20205;-61
2021/03/25 09:31:54;;;;;;;37.90;26.07;;;;;;;;;;5033453;28;20181;-61
2021/03/25 09:34:23;;;;;;;46.17;27.10;;;;;;;;;;5046626;28;20571;-61
2021/03/25 09:37:00;;;;;;;49.73;28.80;;;;;;;;;;5031861;28;20174;-61
2021/03/25 09:39:36;;;;;;;44.03;27.70;;;;;;;;;;5044919;28;20574;-62
2021/03/25 09:42:24;;;;;;;39.43;26.20;;;;;;;;;;5035768;28;20263;-62
2021/03/25 09:44:50;;;;;;;48.80;31.10;;;;;;;;;;5027520;28;20215;-61
2021/03/25 09:47:19;;;;;;;46.63;29.97;;;;;;;;;;5057561;28;20196;-61
2021/03/25 09:49:48;;;;;;;48.03;28.67;;;;;;;;;;5051076;28;20211;-62
2021/03/25 09:52:21;;;;;;;43.77;28.90;;;;;;;;;;5051516;28;20258;-61
2021/03/25 09:54:49;;;;;;;44.83;26.93;;;;;;;;;;5068832;28;20172;-63
2021/03/25 09:57:16;;;;;;;42.13;29.10;;;;;;;;;;5053584;28;20179;-61
2021/03/25 09:59:45;;;;;;;42.70;29.10;;;;;;;;;;5071343;28;20188;-62
2021/03/25 10:02:11;;;;;;;44.57;25.70;;;;;;;;;;5032399;28;20170;-62
2021/03/25 10:04:39;;;;;;;40.67;27.43;;;;;;;;;;5038548;28;20200;-62
2021/03/25 10:07:12;;;;;;;40.43;28.00;;;;;;;;;;5049448;28;20185;-62
2021/03/25 10:09:50;;;;;;;40.27;27.77;;;;;;;;;;5053933;28;20178;-64
2021/03/25 10:12:35;;;;;;;36.70;25.87;;;;;;;;;;5050581;28;20165;-62
2021/03/25 10:15:01;;;;;;;39.77;26.90;;;;;;;;;;5031074;28;20550;-63
2021/03/25 10:17:46;;;;;;;42.77;26.80;;;;;;;;;;5031230;28;20530;-61
2021/03/25 10:20:14;;;;;;;35.57;24.70;;;;;;;;;;5023748;28;20230;-62
2021/03/25 10:22:40;;;;;;;33.23;25.40;;;;;;;;;;5050169;28;20208;-61
2021/03/25 10:25:07;;;;;;;31.80;23.67;;;;;;;;;;5039639;28;20197;-62
2021/03/25 10:27:39;;;;;;;34.47;22.73;;;;;;;;;;5061856;28;20172;-62
2021/03/25 10:30:07;;;;;;;39.00;22.80;;;;;;;;;;5048055;28;20181;-61
2021/03/25 10:32:36;;;;;;;31.07;20.47;;;;;;;;;;5030981;28;20193;-64
2021/03/25 10:35:04;;;;;;;29.83;20.50;;;;;;;;;;5047908;28;20199;-61
2021/03/25 10:37:33;;;;;;;27.17;20.43;;;;;;;;;;5050327;28;20169;-62
2021/03/25 10:40:05;;;;;;;27.20;18.80;;;;;;;;;;5035010;28;20704;-62
2021/03/25 10:42:41;;;;;;;35.33;21.20;;;;;;;;;;5030033;28;20618;-62
2021/03/25 10:45:37;;;;;;;26.47;19.77;;;;;;;;;;5039915;28;20287;-62
2021/03/25 10:48:07;;;;;;;30.50;19.60;;;;;;;;;;5025109;28;20260;-61
2021/03/25 10:50:39;;;;;;;26.67;18.47;;;;;;;;;;5026545;28;20193;-62
2021/03/25 10:53:07;;;;;;;26.93;19.07;;;;;;;;;;5035736;28;20261;-61
2021/03/25 10:55:44;;;;;;;25.90;18.57;;;;;;;;;;5052219;28;20185;-61
2021/03/25 10:58:21;;;;;;;28.80;17.93;;;;;;;;;;5037301;28;20264;-61
2021/03/25 11:00:48;;;;;;;29.73;20.90;;;;;;;;;;5044909;28;20177;-60
2021/03/25 11:03:34;;;;;;;28.30;18.97;;;;;;;;;;5035211;28;20185;-63
2021/03/25 11:06:01;;;;;;;31.30;19.53;;;;;;;;;;5031671;28;20566;-60
2021/03/25 11:08:33;;;;;;;30.20;19.63;;;;;;;;;;5049401;28;20573;-60
2021/03/25 11:11:00;;;;;;;27.63;20.30;;;;;;;;;;5030970;28;20662;-63
2021/03/25 11:13:27;;;;;;;28.27;20.90;;;;;;;;;;5036640;28;20197;-60
2021/03/25 11:15:58;;;;;;;29.23;20.37;;;;;;;;;;5040157;28;20186;-61
2021/03/25 11:18:42;;;;;;;29.40;17.47;;;;;;;;;;5036150;28;20188;-62
2021/03/25 11:21:08;;;;;;;25.07;15.77;;;;;;;;;;5032058;28;20660;-61
2021/03/25 11:23:35;;;;;;;26.07;18.00;;;;;;;;;;5041432;28;20276;-61
2021/03/25 11:26:03;;;;;;;27.97;18.43;;;;;;;;;;5050393;28;20208;-61
2021/03/25 11:28:31;;;;;;;28.57;19.57;;;;;;;;;;5032237;28;20189;-61
2021/03/25 11:31:15;;;;;;;27.80;18.73;;;;;;;;;;5050247;28;20600;-61
2021/03/25 11:33:42;;;;;;;25.80;17.77;;;;;;;;;;5049500;28;20188;-61
2021/03/25 11:36:08;;;;;;;26.73;18.17;;;;;;;;;;5049636;28;20196;-61
2021/03/25 11:38:42;;;;;;;30.70;20.57;;;;;;;;;;5042401;28;20232;-62
2021/03/25 11:41:11;;;;;;;27.00;19.57;;;;;;;;;;5044663;28;20265;-61
2021/03/25 11:43:46;;;;;;;23.60;18.70;;;;;;;;;;5044574;28;20282;-61
2021/03/25 11:46:31;;;;;;;27.70;19.77;;;;;;;;;;5048412;28;20208;-62
2021/03/25 11:48:59;;;;;;;31.53;21.37;;;;;;;;;;5040477;28;20263;-61
2021/03/25 11:51:26;;;;;;;31.23;21.53;;;;;;;;;;5050428;28;20170;-60
2021/03/25 11:53:54;;;;;;;27.97;21.60;;;;;;;;;;5051538;28;20185;-61
2021/03/25 11:56:34;;;;;;;29.27;20.37;;;;;;;;;;5047734;28;20204;-61
2021/03/25 11:59:22;;;;;;;28.57;20.00;;;;;;;;;;5028143;28;20193;-61
2021/03/25 12:01:48;;;;;;;26.47;18.70;;;;;;;;;;5041607;28;20243;-61
2021/03/25 12:04:14;;;;;;;29.57;17.97;;;;;;;;;;5043569;28;20182;-60
2021/03/25 12:06:58;;;;;;;29.30;20.27;;;;;;;;;;5033537;28;20201;-61
2021/03/25 12:09:24;;;;;;;26.87;20.10;;;;;;;;;;5048643;28;20701;-62
2021/03/25 12:11:51;;;;;;;23.63;18.07;;;;;;;;;;5024545;28;20276;-62
2021/03/25 12:14:21;;;;;;;24.33;18.80;;;;;;;;;;5068100;28;20181;-61
2021/03/25 12:16:57;;;;;;;23.97;17.77;;;;;;;;;;5074337;28;20902;-61
2021/03/25 12:19:24;;;;;;;29.03;18.47;;;;;;;;;;5067503;28;20219;-62
2021/03/25 12:21:50;;;;;;;26.57;19.07;;;;;;;;;;5024411;28;20186;-61
2021/03/25 12:24:16;;;;;;;25.13;18.50;;;;;;;;;;5059039;28;20632;-61
2021/03/25 12:26:43;;;;;;;24.63;18.73;;;;;;;;;;5058100;28;20197;-62
2021/03/25 12:29:09;;;;;;;24.33;17.80;;;;;;;;;;5035678;28;20254;-62
2021/03/25 12:31:40;;;;;;;22.70;16.97;;;;;;;;;;5051917;28;20189;-62
2021/03/25 12:34:06;;;;;;;21.10;16.70;;;;;;;;;;5049273;28;20173;-62
2021/03/25 12:36:32;;;;;;;20.23;16.60;;;;;;;;;;5033494;28;20182;-61
2021/03/25 12:38:59;;;;;;;22.87;17.50;;;;;;;;;;5045020;28;20221;-61
2021/03/25 12:41:36;;;;;;;20.50;16.63;;;;;;;;;;5033226;28;20178;-63
2021/03/25 12:44:03;;;;;;;27.17;17.27;;;;;;;;;;5057944;28;20177;-61
2021/03/25 12:46:29;;;;;;;22.97;17.13;;;;;;;;;;5053377;28;20200;-61
2021/03/25 12:48:55;;;;;;;26.23;20.05;;;;;;;;;;5050328;28;20416;-63
2021/03/25 12:51:22;;;;;;;22.93;17.70;;;;;;;;;;5048571;28;20188;-62
2021/03/25 12:53:48;;;;;;;30.87;17.50;;;;;;;;;;5056014;28;20173;-61
2021/03/25 12:56:16;;;;;;;23.70;17.47;;;;;;;;;;5060492;28;20173;-61
2021/03/25 12:58:42;;;;;;;23.10;15.73;;;;;;;;;;5067202;28;20177;-62
2021/03/25 13:01:10;;;;;;;21.33;15.77;;;;;;;;;;5053119;28;20264;-61
2021/03/25 13:03:37;;;;;;;22.00;15.63;;;;;;;;;;5032312;28;20223;-61
2021/03/25 13:06:04;;;;;;;21.43;14.90;;;;;;;;;;5051344;28;20700;-62
2021/03/25 13:08:30;;;;;;;16.30;13.10;;;;;;;;;;5055967;28;20563;-61
2021/03/25 13:10:56;;;;;;;15.57;12.57;;;;;;;;;;5053829;28;20169;-61
2021/03/25 13:13:22;;;;;;;14.83;12.83;;;;;;;;;;5056049;28;20230;-62
2021/03/25 13:15:48;;;;;;;15.50;12.87;;;;;;;;;;5037057;28;20178;-61
2021/03/25 13:18:14;;;;;;;19.03;13.03;;;;;;;;;;5052425;28;20556;-62
2021/03/25 13:20:41;;;;;;;20.90;12.10;;;;;;;;;;5057969;28;20180;-62
2021/03/25 13:23:07;;;;;;;19.23;11.07;;;;;;;;;;5053282;28;20177;-62
2021/03/25 13:25:37;;;;;;;12.80;10.20;;;;;;;;;;5058086;28;20197;-65
2021/03/25 13:28:04;;;;;;;15.10;10.47;;;;;;;;;;5051413;28;20181;-64
2021/03/25 13:30:30;;;;;;;11.07;9.37;;;;;;;;;;5061016;28;20217;-66
2021/03/25 13:32:57;;;;;;;10.83;8.80;;;;;;;;;;5044711;28;20178;-63
2021/03/25 13:35:24;;;;;;;12.20;8.83;;;;;;;;;;5032809;28;20177;-64
2021/03/25 13:37:50;;;;;;;9.57;8.57;;;;;;;;;;5051339;28;20213;-62
2021/03/25 13:40:17;;;;;;;12.70;8.27;;;;;;;;;;5051093;28;20169;-64
2021/03/25 13:42:43;;;;;;;12.87;8.70;;;;;;;;;;5047038;28;20184;-63
2021/03/25 13:45:10;;;;;;;11.93;8.37;;;;;;;;;;5033868;28;20555;-62
2021/03/25 13:47:37;;;;;;;10.67;8.20;;;;;;;;;;5034887;28;20177;-63
2021/03/25 13:50:03;;;;;;;10.23;7.57;;;;;;;;;;5061789;28;20203;-63
2021/03/25 13:52:29;;;;;;;11.80;6.60;;;;;;;;;;5051472;28;20184;-63
2021/03/25 13:54:55;;;;;;;8.63;6.93;;;;;;;;;;5055015;28;20185;-63
2021/03/25 13:57:22;;;;;;;7.93;7.13;;;;;;;;;;5031697;28;20181;-64
2021/03/25 13:59:48;;;;;;;8.50;7.60;;;;;;;;;;5049552;28;20181;-63
2021/03/25 14:02:14;;;;;;;11.20;6.67;;;;;;;;;;5052453;28;20238;-64
2021/03/25 14:04:42;;;;;;;9.23;7.40;;;;;;;;;;5044440;28;20185;-63
2021/03/25 14:07:08;;;;;;;8.47;7.23;;;;;;;;;;5031561;28;20173;-63
2021/03/25 14:09:34;;;;;;;7.90;7.10;;;;;;;;;;5047543;28;20264;-64
2021/03/25 14:12:00;;;;;;;8.20;7.10;;;;;;;;;;5032522;28;20335;-62
2021/03/25 14:14:26;;;;;;;10.27;6.63;;;;;;;;;;5050363;28;20625;-63
2021/03/25 14:16:52;;;;;;;9.50;6.90;;;;;;;;;;5032693;28;20217;-62
2021/03/25 14:19:18;;;;;;;8.67;7.40;;;;;;;;;;5049241;28;20209;-62
2021/03/25 14:21:44;;;;;;;8.80;7.17;;;;;;;;;;5049152;28;20240;-63
2021/03/25 14:24:10;;;;;;;10.27;7.13;;;;;;;;;;5037905;28;20257;-63
2021/03/25 14:26:36;;;;;;;10.47;7.50;;;;;;;;;;5013221;28;20209;-65
2021/03/25 14:29:03;;;;;;;9.40;7.40;;;;;;;;;;5032739;28;20181;-64
2021/03/25 14:31:30;;;;;;;8.43;7.53;;;;;;;;;;5050776;28;20170;-64
2021/03/25 14:33:57;;;;;;;11.30;8.80;;;;;;;;;;5049132;28;20177;-63
2021/03/25 14:36:23;;;;;;;9.27;7.10;;;;;;;;;;5050771;28;20186;-64
2021/03/25 14:38:49;;;;;;;10.00;7.70;;;;;;;;;;5050316;28;20216;-63
2021/03/25 14:41:15;;;;;;;7.87;7.07;;;;;;;;;;5050535;28;20180;-64